Time;durP1;ratioP1;P1;durP2;ratioP2;P2;SDS_P1;SDS_P2;PMS_P1;PMS_P2;Temp;Humidity;BMP_temperature;BMP_pressure;BME280_temperature;BME280_humidity;BME280_pressure;Samples;Min_cycle;Max_cycle;Signal;HPM_P1;HPM_P2
2021/03/18 00:01:42;;;;;;;4.83;4.27;;;;;;;2.02;94.14;99427.09;4925827;28;105240;-73
2021/03/18 00:04:11;;;;;;;4.23;3.70;;;;;;;1.98;94.30;99425.47;4937655;28;103179;-72
2021/03/18 00:06:40;;;;;;;3.90;3.50;;;;;;;1.98;94.25;99425.47;4929867;28;103010;-72
2021/03/18 00:09:08;;;;;;;5.23;4.73;;;;;;;2.03;94.15;99422.75;4924132;28;104056;-73
2021/03/18 00:11:37;;;;;;;4.67;3.73;;;;;;;2.09;94.08;99422.56;4914917;28;103725;-73
2021/03/18 00:14:05;;;;;;;4.80;4.23;;;;;;;2.16;94.20;99424.16;4933701;28;102834;-73
2021/03/18 00:16:32;;;;;;;6.70;5.07;;;;;;;2.09;93.52;99413.00;4940035;28;103267;-72
2021/03/18 00:18:59;;;;;;;6.53;3.83;;;;;;;2.08;93.64;99421.72;4944881;28;103725;-73
2021/03/18 00:21:26;;;;;;;5.53;3.77;;;;;;;2.11;94.06;99426.00;4915372;28;103683;-72
2021/03/18 00:23:54;;;;;;;3.70;3.23;;;;;;;2.16;93.97;99418.94;4944843;28;102636;-72
2021/03/18 00:26:22;;;;;;;3.30;2.90;;;;;;;2.19;93.94;99421.44;4934230;28;102722;-72
2021/03/18 00:28:49;;;;;;;3.67;3.30;;;;;;;2.21;93.27;99417.03;4945324;28;104711;-72
2021/03/18 00:31:20;;;;;;;4.53;3.63;;;;;;;2.15;93.30;99412.84;4928126;28;104291;-72
2021/03/18 00:33:47;;;;;;;6.30;4.67;;;;;;;2.13;92.70;99419.00;4928397;28;103000;-73
2021/03/18 00:36:14;;;;;;;5.40;3.90;;;;;;;2.17;93.59;99416.25;4928064;28;103310;-72
2021/03/18 00:38:41;;;;;;;5.30;4.17;;;;;;;1.97;94.03;99412.47;4928105;28;107621;-72
2021/03/18 00:41:10;;;;;;;7.70;4.73;;;;;;;2.08;95.08;99407.81;4938839;28;103082;-72
2021/03/18 00:43:39;;;;;;;7.63;4.90;;;;;;;2.03;93.23;99407.09;4947935;28;102947;-72
2021/03/18 00:46:07;;;;;;;5.00;4.23;;;;;;;2.10;92.81;99398.22;4934446;28;102994;-73
2021/03/18 00:48:36;;;;;;;4.80;3.73;;;;;;;2.16;93.14;99401.50;4913188;28;104236;-72
2021/03/18 00:51:07;;;;;;;4.30;3.20;;;;;;;2.27;93.39;99398.63;4923056;28;103628;-72
2021/03/18 00:53:37;;;;;;;5.40;3.93;;;;;;;2.34;93.52;99381.91;4912234;28;103109;-73
2021/03/18 00:56:07;;;;;;;5.30;3.93;;;;;;;2.40;93.16;99394.75;4933892;28;103102;-72
2021/03/18 00:58:37;;;;;;;4.13;3.73;;;;;;;2.40;92.50;99392.16;4927834;28;111353;-72
2021/03/18 01:01:06;;;;;;;3.70;3.23;;;;;;;2.40;92.23;99386.94;4927476;28;103750;-73
2021/03/18 01:03:36;;;;;;;5.07;3.60;;;;;;;2.29;90.94;99391.59;4939305;28;102634;-73
2021/03/18 01:06:06;;;;;;;4.40;3.50;;;;;;;2.33;91.67;99382.78;4927976;28;103161;-72
2021/03/18 01:08:37;;;;;;;5.93;4.20;;;;;;;2.27;91.10;99393.41;4922028;28;103814;-73
2021/03/18 01:11:07;;;;;;;5.50;4.43;;;;;;;2.29;91.72;99383.78;4917590;28;103792;-72
2021/03/18 01:13:35;;;;;;;5.33;3.00;;;;;;;2.31;90.74;99389.81;4927838;28;102915;-72
2021/03/18 01:16:06;;;;;;;3.33;3.03;;;;;;;2.36;90.88;99387.91;4926844;28;103766;-73
2021/03/18 01:18:39;;;;;;;4.43;3.60;;;;;;;2.39;90.65;99390.44;4926913;28;111506;-72
2021/03/18 01:21:08;;;;;;;4.80;3.17;;;;;;;2.38;90.40;99382.66;4926374;28;105306;-73
2021/03/18 01:23:36;;;;;;;4.87;3.50;;;;;;;2.22;89.81;99387.44;4933613;28;104081;-73
2021/03/18 01:26:03;;;;;;;5.20;3.53;;;;;;;2.24;90.53;99383.06;4928503;28;103099;-72
2021/03/18 01:28:32;;;;;;;3.83;3.27;;;;;;;2.30;90.41;99381.13;4927170;28;104431;-72
2021/03/18 01:30:59;;;;;;;3.70;2.93;;;;;;;2.36;90.07;99382.69;4927893;28;103136;-72
2021/03/18 01:33:28;;;;;;;3.60;3.13;;;;;;;2.42;90.61;99379.06;4936933;28;102768;-72
2021/03/18 01:35:56;;;;;;;5.93;3.40;;;;;;;2.25;89.16;99377.78;4927446;28;102975;-73
2021/03/18 01:38:24;;;;;;;4.23;3.50;;;;;;;2.24;89.65;99377.84;4908658;28;103200;-72
2021/03/18 01:40:51;;;;;;;4.30;3.90;;;;;;;2.21;90.80;99380.53;4934448;28;104716;-73
2021/03/18 01:43:18;;;;;;;3.30;2.80;;;;;;;2.15;91.59;99380.72;4947058;28;102926;-72
2021/03/18 01:45:45;;;;;;;4.53;4.13;;;;;;;2.12;91.84;99380.78;4929389;28;102945;-72
2021/03/18 01:48:12;;;;;;;5.00;2.97;;;;;;;2.19;92.18;99375.34;4928025;28;107508;-72
2021/03/18 01:50:40;;;;;;;5.50;3.73;;;;;;;2.18;91.34;99375.41;4929244;28;103796;-72
2021/03/18 01:53:08;;;;;;;5.10;3.07;;;;;;;2.25;91.16;99379.53;4946520;28;102523;-72
2021/03/18 01:55:38;;;;;;;4.63;3.40;;;;;;;2.20;90.44;99368.38;4932813;28;103003;-72
2021/03/18 01:58:06;;;;;;;4.47;2.97;;;;;;;2.17;91.61;99378.91;4926519;28;105387;-72
2021/03/18 02:00:35;;;;;;;4.30;3.70;;;;;;;2.22;92.14;99371.81;4926840;28;103644;-74
2021/03/18 02:03:03;;;;;;;4.73;3.03;;;;;;;2.21;91.41;99380.53;4922987;28;104852;-72
2021/03/18 02:05:32;;;;;;;3.43;3.13;;;;;;;2.25;91.39;99374.31;4927397;28;102965;-72
2021/03/18 02:08:01;;;;;;;5.50;3.83;;;;;;;2.19;91.65;99371.91;4929398;28;104045;-72
2021/03/18 02:10:30;;;;;;;3.93;2.77;;;;;;;2.17;91.57;99378.91;4936801;28;103233;-72
2021/03/18 02:12:59;;;;;;;4.30;3.37;;;;;;;2.11;91.55;99374.72;4926378;28;102526;-73
2021/03/18 02:15:28;;;;;;;4.57;3.17;;;;;;;2.13;91.80;99367.69;4925508;28;103349;-73
2021/03/18 02:18:00;;;;;;;5.77;3.50;;;;;;;2.13;90.59;99372.09;4923441;28;105275;-72
2021/03/18 02:21:12;;;;;;;6.10;4.13;;;;;;;2.03;90.75;99373.22;4930219;28;103664;-72
2021/03/18 02:24:02;;;;;;;4.97;3.40;;;;;;;2.16;91.75;99377.22;4916707;28;102619;-72
2021/03/18 02:27:11;;;;;;;4.17;2.90;;;;;;;2.19;90.88;99382.34;4917925;28;102916;-72
2021/03/18 02:30:08;;;;;;;4.40;2.73;;;;;;;2.10;90.74;99377.38;4925483;28;103782;-72
2021/03/18 02:32:48;;;;;;;4.43;3.10;;;;;;;2.01;91.86;99375.88;4929523;28;103689;-72
2021/03/18 02:35:24;;;;;;;4.50;3.20;;;;;;;2.06;91.12;99380.94;4923064;28;102685;-72
2021/03/18 02:38:00;;;;;;;4.03;2.77;;;;;;;2.15;91.46;99380.72;4925549;28;103335;-72
2021/03/18 02:40:30;;;;;;;4.00;3.60;;;;;;;2.10;91.19;99380.84;4926349;28;104889;-72
2021/03/18 02:43:02;;;;;;;4.30;3.67;;;;;;;2.13;91.56;99382.50;4925789;28;104723;-73
2021/03/18 02:45:33;;;;;;;3.40;3.10;;;;;;;2.08;92.58;99379.16;4923813;28;103450;-72
2021/03/18 02:48:02;;;;;;;6.03;4.60;;;;;;;2.09;92.48;99384.34;4927028;28;102524;-73
2021/03/18 02:50:31;;;;;;;3.90;2.97;;;;;;;2.11;92.31;99381.69;4926874;28;103326;-72
2021/03/18 02:52:59;;;;;;;4.20;3.17;;;;;;;2.13;92.01;99392.94;4926066;28;103828;-72
2021/03/18 02:55:28;;;;;;;2.80;2.60;;;;;;;2.19;91.79;99383.19;4910647;28;102717;-72
2021/03/18 02:57:57;;;;;;;3.93;2.80;;;;;;;2.17;90.59;99384.13;4925535;28;103168;-73
2021/03/18 03:00:25;;;;;;;3.87;3.53;;;;;;;2.18;90.03;99391.06;4926004;28;103928;-73
2021/03/18 03:02:53;;;;;;;3.83;3.13;;;;;;;2.12;90.37;99391.22;4920653;28;103830;-72
2021/03/18 03:05:23;;;;;;;4.63;3.60;;;;;;;2.16;89.99;99390.25;4926244;28;102562;-72
2021/03/18 03:07:53;;;;;;;4.60;3.57;;;;;;;2.01;89.44;99388.06;4944161;28;103140;-73
2021/03/18 03:10:22;;;;;;;7.63;3.80;;;;;;;1.92;89.71;99390.91;4925573;28;103875;-73
2021/03/18 03:12:50;;;;;;;3.80;3.40;;;;;;;1.91;89.81;99387.44;4906319;28;105326;-73
2021/03/18 03:15:18;;;;;;;3.37;2.90;;;;;;;2.05;90.70;99389.69;4925741;28;102687;-72
2021/03/18 03:17:47;;;;;;;6.50;4.40;;;;;;;1.98;91.13;99393.34;4911891;28;103176;-72
2021/03/18 03:20:17;;;;;;;7.00;3.93;;;;;;;1.59;91.69;99403.91;4931000;28;104050;-72
2021/03/18 03:22:45;;;;;;;3.63;3.33;;;;;;;1.84;91.68;99400.66;4941694;28;104378;-72
2021/03/18 03:25:15;;;;;;;5.87;3.30;;;;;;;1.93;91.10;99400.44;4924695;28;103063;-73
2021/03/18 03:27:44;;;;;;;5.33;3.13;;;;;;;1.90;90.88;99403.13;4906867;28;103080;-72
2021/03/18 03:30:14;;;;;;;7.23;4.03;;;;;;;1.97;90.98;99402.03;4909442;28;104899;-72
2021/03/18 03:32:41;;;;;;;5.77;4.10;;;;;;;2.02;90.10;99405.41;4911327;28;112676;-72
2021/03/18 03:35:10;;;;;;;3.83;3.00;;;;;;;1.99;90.85;99402.88;4932086;28;103280;-72
2021/03/18 03:37:37;;;;;;;3.07;2.57;;;;;;;2.08;91.46;99394.78;4928243;28;103273;-72
2021/03/18 03:40:06;;;;;;;3.87;2.90;;;;;;;2.12;90.99;99396.44;4922234;28;104961;-72
2021/03/18 03:42:34;;;;;;;5.67;4.00;;;;;;;2.04;90.79;99399.25;4948499;28;103810;-73
2021/03/18 03:45:01;;;;;;;4.20;3.40;;;;;;;2.05;91.33;99394.91;4933885;28;102625;-73
2021/03/18 03:47:29;;;;;;;4.90;3.60;;;;;;;1.99;90.94;99400.28;4911793;28;103241;-72
2021/03/18 03:49:56;;;;;;;6.70;3.20;;;;;;;2.08;90.94;99400.00;4931685;28;104700;-72
2021/03/18 03:52:28;;;;;;;5.53;3.20;;;;;;;2.12;90.60;99406.84;4944768;28;105064;-73
2021/03/18 03:55:01;;;;;;;5.13;3.40;;;;;;;2.06;90.74;99401.81;4911587;28;103066;-72
2021/03/18 03:57:33;;;;;;;5.67;3.87;;;;;;;2.03;91.59;99397.53;4929188;28;102623;-72
2021/03/18 04:00:04;;;;;;;7.20;4.37;;;;;;;2.08;91.61;99395.66;4929725;28;103294;-73
2021/03/18 04:02:50;;;;;;;4.63;3.70;;;;;;;2.13;91.31;99408.59;4936346;28;104224;-73
2021/03/18 04:05:19;;;;;;;5.03;3.90;;;;;;;2.15;91.13;99401.56;4932537;28;103115;-73
2021/03/18 04:07:47;;;;;;;5.77;4.00;;;;;;;2.07;90.87;99403.53;4948131;28;102896;-73
2021/03/18 04:10:14;;;;;;;5.83;3.87;;;;;;;2.06;91.40;99409.63;4937199;28;103850;-73
2021/03/18 04:12:45;;;;;;;8.80;4.47;;;;;;;1.81;91.98;99416.38;4931710;28;104107;-73
2021/03/18 04:15:18;;;;;;;5.77;4.60;;;;;;;1.65;92.71;99416.78;4928160;28;102890;-72
2021/03/18 04:17:49;;;;;;;4.67;3.90;;;;;;;1.87;92.74;99411.88;4929185;28;102928;-72
2021/03/18 04:20:19;;;;;;;4.93;3.87;;;;;;;1.98;92.33;99403.78;4932435;28;103864;-72
2021/03/18 04:22:50;;;;;;;5.00;3.60;;;;;;;2.10;92.15;99408.66;4935264;28;103805;-72
2021/03/18 04:25:18;;;;;;;4.40;3.03;;;;;;;2.14;91.92;99397.22;4928607;28;103125;-72
2021/03/18 04:27:46;;;;;;;5.37;3.80;;;;;;;2.16;91.67;99398.06;4928979;28;103348;-72
2021/03/18 04:30:16;;;;;;;4.80;3.93;;;;;;;1.88;90.72;99390.13;4942054;28;104502;-72
2021/03/18 04:32:46;;;;;;;3.43;2.93;;;;;;;1.96;92.11;99395.16;4933285;28;103712;-72
2021/03/18 04:35:15;;;;;;;6.50;4.10;;;;;;;1.89;91.77;99393.59;4930478;28;103013;-72
2021/03/18 04:37:42;;;;;;;6.33;4.43;;;;;;;1.77;91.58;99407.78;4928704;28;103013;-72
2021/03/18 04:40:13;;;;;;;4.00;3.13;;;;;;;1.86;91.60;99404.94;4928369;28;105096;-73
2021/03/18 04:42:41;;;;;;;4.10;3.20;;;;;;;1.97;91.58;99412.47;4926680;28;103735;-72
2021/03/18 04:45:11;;;;;;;4.67;3.00;;;;;;;2.03;91.44;99401.88;4928482;28;102789;-72
2021/03/18 04:47:41;;;;;;;5.63;3.23;;;;;;;2.07;91.38;99404.38;4928090;28;102984;-72
2021/03/18 04:50:12;;;;;;;3.40;3.10;;;;;;;2.12;91.20;99402.50;4923538;28;105971;-72
2021/03/18 04:52:40;;;;;;;4.00;3.60;;;;;;;2.01;91.35;99399.34;4945514;28;103268;-72
2021/03/18 04:55:09;;;;;;;5.47;3.53;;;;;;;1.93;91.84;99396.09;4936137;28;102604;-73
2021/03/18 04:57:40;;;;;;;3.60;3.03;;;;;;;2.02;92.01;99400.19;4926440;28;103015;-72
2021/03/18 05:00:09;;;;;;;4.93;3.70;;;;;;;2.02;91.26;99395.81;4924653;28;103988;-73
2021/03/18 05:02:38;;;;;;;6.70;3.40;;;;;;;2.05;91.71;99398.34;4928184;28;110626;-72
2021/03/18 05:05:16;;;;;;;8.97;4.10;;;;;;;1.95;91.03;99394.28;4924709;28;103989;-72
2021/03/18 05:07:45;;;;;;;7.03;3.50;;;;;;;2.01;91.62;99393.25;4930988;28;103328;-73
2021/03/18 05:10:15;;;;;;;3.80;2.77;;;;;;;2.08;91.75;99400.00;4924078;28;103893;-74
2021/03/18 05:12:42;;;;;;;6.13;4.17;;;;;;;2.02;91.25;99392.38;4925738;28;104431;-74
2021/03/18 05:15:12;;;;;;;4.57;3.90;;;;;;;2.01;91.08;99393.25;4925897;28;102879;-74
2021/03/18 05:17:40;;;;;;;7.77;3.97;;;;;;;1.83;91.30;99394.59;4929947;28;102702;-74
2021/03/18 05:20:10;;;;;;;3.33;2.83;;;;;;;1.92;91.85;99396.09;4915595;28;105175;-74
2021/03/18 05:22:39;;;;;;;6.50;4.30;;;;;;;1.85;91.26;99391.97;4926378;28;103700;-73
2021/03/18 05:25:09;;;;;;;6.83;3.70;;;;;;;1.81;91.54;99392.94;4928336;28;103329;-74
2021/03/18 05:27:37;;;;;;;6.87;3.87;;;;;;;1.83;91.50;99393.72;4924617;28;104209;-74
2021/03/18 05:30:07;;;;;;;5.07;3.90;;;;;;;1.93;91.77;99400.44;4917259;28;103405;-75
2021/03/18 05:32:34;;;;;;;4.90;3.87;;;;;;;1.93;91.39;99395.22;4924232;28;104813;-73
2021/03/18 05:35:03;;;;;;;7.40;3.80;;;;;;;1.96;91.70;99401.22;4901416;28;103354;-73
2021/03/18 05:37:29;;;;;;;5.53;3.90;;;;;;;1.96;91.20;99392.53;4920834;28;102851;-73
2021/03/18 05:39:58;;;;;;;3.87;3.17;;;;;;;2.01;91.39;99390.66;4925351;28;104426;-73
2021/03/18 05:42:25;;;;;;;5.60;3.90;;;;;;;2.06;91.19;99396.59;4927446;28;103952;-73
2021/03/18 05:44:52;;;;;;;7.50;3.20;;;;;;;2.06;90.75;99401.81;4903860;28;102683;-73
2021/03/18 05:47:19;;;;;;;4.30;3.60;;;;;;;2.04;90.80;99401.00;4926691;28;103235;-72
2021/03/18 05:49:47;;;;;;;5.90;4.23;;;;;;;2.02;90.94;99393.22;4926050;28;103877;-71
2021/03/18 05:52:15;;;;;;;3.43;3.10;;;;;;;2.03;91.46;99401.88;4943651;28;104307;-72
2021/03/18 05:54:47;;;;;;;5.60;3.97;;;;;;;2.13;91.02;99398.16;4944253;28;103015;-72
2021/03/18 05:57:16;;;;;;;3.67;3.30;;;;;;;2.19;90.95;99401.44;4928327;28;103173;-71
2021/03/18 05:59:44;;;;;;;5.83;4.57;;;;;;;2.27;90.37;99403.84;4926256;28;104049;-72
2021/03/18 06:02:12;;;;;;;4.80;3.70;;;;;;;2.28;90.43;99408.13;4911479;28;106808;-73
2021/03/18 06:04:40;;;;;;;4.97;4.13;;;;;;;2.31;90.49;99405.44;4935320;28;103066;-74
2021/03/18 06:07:07;;;;;;;4.73;3.60;;;;;;;2.33;90.44;99406.25;4928815;28;103257;-77
2021/03/18 06:09:35;;;;;;;3.77;3.43;;;;;;;2.37;89.61;99407.88;4924627;28;103995;-76
2021/03/18 06:12:02;;;;;;;4.83;3.20;;;;;;;2.39;89.30;99398.25;4915923;28;104108;-80
2021/03/18 06:14:31;;;;;;;5.17;3.80;;;;;;;2.40;89.71;99402.59;4920583;28;104303;-86
2021/03/18 06:16:59;;;;;;;4.60;3.50;;;;;;;2.43;89.16;99396.44;4926869;28;103043;-80
2021/03/18 06:19:26;;;;;;;3.50;2.87;;;;;;;2.57;89.40;99402.97;4908730;28;105329;-79
2021/03/18 06:21:56;;;;;;;5.17;4.07;;;;;;;2.53;87.91;99395.25;4926742;28;103365;-75
2021/03/18 06:24:25;;;;;;;5.27;3.73;;;;;;;2.59;89.25;99397.69;4899074;28;103026;-76
2021/03/18 06:26:53;;;;;;;4.83;3.93;;;;;;;2.78;88.68;99406.69;4919460;28;103056;-74
2021/03/18 06:29:31;;;;;;;7.57;3.87;;;;;;;2.83;88.50;99403.06;4924262;28;106749;-76
2021/03/18 06:32:15;;;;;;;5.87;4.23;;;;;;;2.91;87.91;99400.22;4925437;28;103846;-77
2021/03/18 06:34:45;;;;;;;7.97;4.73;;;;;;;2.99;86.20;99402.56;4907206;28;103679;-78
2021/03/18 06:37:30;;;;;;;7.53;5.23;;;;;;;2.90;86.71;99395.88;4924440;28;103231;-79
2021/03/18 06:40:00;;;;;;;7.77;4.60;;;;;;;2.97;86.57;99394.81;4890778;28;107577;-75
2021/03/18 06:42:27;;;;;;;5.70;4.20;;;;;;;3.16;86.39;99395.06;4924387;28;104369;-75
2021/03/18 06:45:08;;;;;;;5.60;4.40;;;;;;;3.08;86.19;99397.06;4927025;28;102965;-80
2021/03/18 06:47:40;;;;;;;6.10;4.43;;;;;;;3.27;85.47;99404.28;4924914;28;102721;-84
2021/03/18 06:50:09;;;;;;;6.53;4.30;;;;;;;3.09;82.37;99404.03;4925357;28;103349;-72
2021/03/18 06:52:36;;;;;;;6.20;4.03;;;;;;;2.95;84.02;99406.19;4926416;28;103694;-72
2021/03/18 06:55:05;;;;;;;6.93;4.20;;;;;;;2.89;83.63;99402.03;4926514;28;102822;-72
2021/03/18 06:57:33;;;;;;;5.10;3.63;;;;;;;3.22;83.27;99411.41;4922858;28;103221;-76
2021/03/18 07:00:01;;;;;;;6.70;4.40;;;;;;;3.29;82.99;99404.22;4913891;28;104601;-72
2021/03/18 07:02:29;;;;;;;7.47;4.63;;;;;;;3.28;84.14;99400.78;4923293;28;103319;-75
2021/03/18 07:04:57;;;;;;;5.83;4.77;;;;;;;3.29;83.83;99406.81;4925602;28;103689;-79
2021/03/18 07:07:26;;;;;;;7.40;4.53;;;;;;;3.19;83.21;99402.81;4927661;28;102546;-71
2021/03/18 07:09:55;;;;;;;7.87;4.17;;;;;;;2.88;83.35;99409.00;4924944;28;103902;-76
2021/03/18 07:12:28;;;;;;;6.43;4.67;;;;;;;2.78;83.89;99410.16;4938778;28;104549;-75
2021/03/18 07:14:59;;;;;;;8.33;4.20;;;;;;;2.92;83.58;99412.34;4925052;28;103040;-75
2021/03/18 07:17:31;;;;;;;6.03;4.33;;;;;;;3.04;83.69;99411.09;4924309;28;103090;-73
2021/03/18 07:20:14;;;;;;;7.43;4.20;;;;;;;3.08;81.21;99412.75;4924841;28;103838;-74
2021/03/18 07:22:45;;;;;;;7.10;3.97;;;;;;;3.11;82.52;99410.03;4914833;28;105011;-71
2021/03/18 07:25:14;;;;;;;7.00;3.80;;;;;;;3.29;81.59;99406.81;4927517;28;102977;-72
2021/03/18 07:27:44;;;;;;;5.73;4.07;;;;;;;3.42;81.41;99405.56;4926913;28;103021;-72
2021/03/18 07:30:25;;;;;;;5.80;3.50;;;;;;;3.50;79.46;99408.75;4925704;28;104918;-71
2021/03/18 07:32:55;;;;;;;5.23;3.90;;;;;;;3.66;79.44;99404.72;4925835;28;103197;-72
2021/03/18 07:35:23;;;;;;;5.17;3.73;;;;;;;3.81;78.82;99400.75;4942653;28;102969;-74
2021/03/18 07:37:52;;;;;;;5.03;3.73;;;;;;;3.97;78.50;99394.94;4928733;28;103061;-78
2021/03/18 07:40:22;;;;;;;6.87;4.10;;;;;;;4.23;78.09;99401.03;4923833;28;105640;-80
2021/03/18 07:42:53;;;;;;;6.60;4.57;;;;;;;3.97;77.85;99402.78;4906708;28;104139;-75
2021/03/18 07:45:25;;;;;;;6.73;4.27;;;;;;;3.73;79.05;99389.72;4924691;28;103074;-77
2021/03/18 07:47:57;;;;;;;5.27;4.17;;;;;;;3.54;78.10;99401.69;4927599;28;103117;-78
2021/03/18 07:50:32;;;;;;;6.90;4.00;;;;;;;3.79;78.42;99395.56;4946293;28;105203;-75
2021/03/18 07:53:00;;;;;;;4.53;3.60;;;;;;;3.94;78.52;99397.66;4947861;28;104813;-72
2021/03/18 07:55:40;;;;;;;4.40;4.00;;;;;;;4.58;76.84;99401.44;4943625;28;102994;-75
2021/03/18 07:58:10;;;;;;;8.10;4.90;;;;;;;4.31;77.13;99396.38;4909422;28;102976;-76
2021/03/18 08:00:44;;;;;;;7.83;5.17;;;;;;;4.58;75.77;99400.56;4909609;28;103974;-78
2021/03/18 08:03:30;;;;;;;5.87;4.10;;;;;;;4.59;74.73;99397.94;4925805;28;103919;-75
2021/03/18 08:05:58;;;;;;;7.10;4.67;;;;;;;4.61;75.44;99390.84;4922454;28;103219;-81
2021/03/18 08:08:42;;;;;;;7.83;5.43;;;;;;;5.60;73.39;99390.41;4918224;28;102963;-81
2021/03/18 08:11:12;;;;;;;7.10;4.90;;;;;;;4.83;73.57;99390.88;4910096;28;104855;-78
2021/03/18 08:13:41;;;;;;;6.47;5.03;;;;;;;5.05;74.38;99386.53;4902451;28;105452;-79
2021/03/18 08:16:28;;;;;;;5.73;4.33;;;;;;;5.53;72.95;99388.13;4917105;28;102873;-80
2021/03/18 08:18:57;;;;;;;6.20;4.73;;;;;;;5.57;72.39;99384.44;4921881;28;102963;-76
2021/03/18 08:21:36;;;;;;;7.20;4.73;;;;;;;5.84;71.42;99385.91;4921169;28;104448;-75
2021/03/18 08:24:06;;;;;;;8.10;4.80;;;;;;;6.61;69.45;99386.91;4915765;28;105187;-76
2021/03/18 08:26:42;;;;;;;7.77;4.47;;;;;;;7.11;69.38;99380.16;4922159;28;103084;-79
2021/03/18 08:29:11;;;;;;;8.80;4.93;;;;;;;7.03;70.11;99379.66;4921263;28;103730;-73
2021/03/18 08:31:57;;;;;;;7.13;3.90;;;;;;;7.69;68.19;99379.97;4908590;28;104406;-76
2021/03/18 08:34:47;;;;;;;5.93;4.50;;;;;;;6.71;68.86;99383.78;4921778;28;104061;-76
2021/03/18 08:37:16;;;;;;;6.80;5.40;;;;;;;6.39;67.56;99373.91;4913052;28;103122;-78
2021/03/18 08:39:47;;;;;;;7.33;5.13;;;;;;;6.89;69.44;99376.84;4921743;28;103655;-77
2021/03/18 08:42:43;;;;;;;6.93;4.83;;;;;;;6.27;69.68;99374.44;4920466;28;104046;-79
2021/03/18 08:45:28;;;;;;;8.40;5.17;;;;;;;6.91;69.00;99374.97;4910643;28;105034;-77
2021/03/18 08:47:57;;;;;;;8.27;4.97;;;;;;;5.89;70.00;99370.03;4926222;28;103024;-74
2021/03/18 08:50:57;;;;;;;7.03;5.00;;;;;;;5.82;71.91;99374.63;4920665;28;103162;-74
2021/03/18 08:53:38;;;;;;;7.93;4.50;;;;;;;5.91;68.68;99369.03;4900113;28;108431;-76
2021/03/18 08:56:07;;;;;;;6.83;4.97;;;;;;;6.03;68.98;99367.66;4919247;28;103686;-75
2021/03/18 08:58:53;;;;;;;5.43;4.40;;;;;;;6.55;67.22;99355.69;4920035;28;103306;-76
2021/03/18 09:01:22;;;;;;;6.57;4.93;;;;;;;7.02;68.96;99364.81;4926719;28;103368;-80
2021/03/18 09:03:57;;;;;;;7.27;4.50;;;;;;;6.40;67.35;99363.31;4899757;28;106552;-76
2021/03/18 09:06:30;;;;;;;6.63;5.50;;;;;;;6.31;67.40;99357.66;4913079;28;103897;-75
2021/03/18 09:09:00;;;;;;;6.13;4.57;;;;;;;6.57;68.87;99359.09;4921420;28;103383;-73
2021/03/18 09:11:28;;;;;;;7.60;5.13;;;;;;;5.44;69.04;99357.91;4924322;28;103360;-74
2021/03/18 09:13:55;;;;;;;8.83;4.97;;;;;;;5.07;69.52;99357.69;4920384;28;103213;-76
2021/03/18 09:16:24;;;;;;;7.43;5.40;;;;;;;5.17;70.23;99359.84;4923691;28;110673;-75
2021/03/18 09:19:00;;;;;;;7.80;5.67;;;;;;;4.90;69.98;99360.97;4920164;28;103206;-74
2021/03/18 09:21:37;;;;;;;6.53;4.63;;;;;;;5.31;69.27;99354.06;4923275;28;103232;-77
2021/03/18 09:24:07;;;;;;;7.73;5.73;;;;;;;5.12;69.44;99356.56;4919906;28;104439;-78
2021/03/18 09:26:34;;;;;;;6.63;5.43;;;;;;;5.10;71.57;99350.56;4918148;28;103683;-78
2021/03/18 09:29:02;;;;;;;6.00;5.13;;;;;;;5.21;68.65;99347.50;4920781;28;103167;-72
2021/03/18 09:31:29;;;;;;;6.57;5.37;;;;;;;5.47;69.09;99344.69;4921401;28;103136;-78
2021/03/18 09:33:58;;;;;;;10.17;5.40;;;;;;;5.16;69.09;99345.06;4906278;28;105721;-74
2021/03/18 09:36:29;;;;;;;6.47;4.93;;;;;;;5.02;69.01;99343.91;4923371;28;103730;-74
2021/03/18 09:39:00;;;;;;;7.00;4.47;;;;;;;5.76;70.30;99349.53;4921144;28;102912;-77
2021/03/18 09:41:30;;;;;;;7.93;5.37;;;;;;;4.85;70.29;99344.59;4921616;28;103102;-75
2021/03/18 09:44:07;;;;;;;5.77;4.50;;;;;;;5.42;70.90;99341.38;4921449;28;108148;-76
2021/03/18 09:46:35;;;;;;;6.00;4.70;;;;;;;5.03;69.63;99345.59;4914165;28;103254;-77
2021/03/18 09:49:04;;;;;;;6.20;4.80;;;;;;;5.20;69.31;99338.78;4923195;28;104021;-75
2021/03/18 09:51:39;;;;;;;7.27;5.20;;;;;;;4.55;70.39;99350.97;4921566;28;103483;-75
2021/03/18 09:54:08;;;;;;;7.77;5.80;;;;;;;4.62;70.97;99349.84;4921549;28;104682;-76
2021/03/18 09:56:37;;;;;;;7.07;5.07;;;;;;;5.12;69.82;99346.09;4923922;28;104195;-77
2021/03/18 09:59:06;;;;;;;5.13;4.53;;;;;;;5.11;68.16;99338.28;4923895;28;103217;-75
2021/03/18 10:01:34;;;;;;;7.63;5.27;;;;;;;5.28;69.44;99331.47;4913376;28;103276;-74
2021/03/18 10:04:04;;;;;;;6.03;5.20;;;;;;;5.91;68.75;99324.44;4910091;28;111533;-79
2021/03/18 10:06:34;;;;;;;8.80;4.87;;;;;;;6.06;66.79;99321.16;4922364;28;105029;-76
2021/03/18 10:09:20;;;;;;;6.47;4.80;;;;;;;6.06;64.81;99320.31;4919373;28;103346;-74
2021/03/18 10:11:49;;;;;;;9.40;5.33;;;;;;;6.12;65.93;99314.78;4906179;28;102867;-74
2021/03/18 10:14:18;;;;;;;7.53;5.00;;;;;;;5.94;64.58;99321.69;4923315;28;104308;-78
2021/03/18 10:17:05;;;;;;;5.47;4.97;;;;;;;6.08;66.68;99316.69;4923363;28;103314;-75
2021/03/18 10:19:34;;;;;;;5.70;5.20;;;;;;;6.20;66.36;99313.50;4923774;28;103064;-75
2021/03/18 10:22:06;;;;;;;8.80;5.80;;;;;;;5.59;66.45;99310.06;4922713;28;103302;-75
2021/03/18 10:24:35;;;;;;;8.63;4.83;;;;;;;6.06;66.34;99309.81;4922659;28;103124;-75
2021/03/18 10:27:12;;;;;;;7.30;5.07;;;;;;;6.00;63.95;99310.09;4918782;28;104223;-73
2021/03/18 10:29:40;;;;;;;6.07;5.03;;;;;;;5.91;64.98;99308.72;4923039;28;103274;-75
2021/03/18 10:32:09;;;;;;;7.57;4.67;;;;;;;6.38;65.90;99312.69;4923159;28;103486;-74
2021/03/18 10:34:37;;;;;;;5.77;5.07;;;;;;;6.32;66.23;99302.47;4922152;28;105447;-73
2021/03/18 10:37:27;;;;;;;5.17;3.57;;;;;;;6.71;66.43;99304.19;4923234;28;103697;-76
2021/03/18 10:40:15;;;;;;;5.40;4.80;;;;;;;7.04;64.92;99302.56;4920595;28;104273;-74
2021/03/18 10:42:46;;;;;;;5.00;4.50;;;;;;;6.90;64.72;99292.72;4924037;28;102858;-74
2021/03/18 10:45:32;;;;;;;7.90;5.90;;;;;;;6.55;64.09;99295.28;4920689;28;105305;-72
2021/03/18 10:48:03;;;;;;;8.23;6.40;;;;;;;6.15;61.57;99299.75;4906051;28;105299;-73
2021/03/18 10:50:33;;;;;;;5.03;4.40;;;;;;;6.57;63.57;99290.84;4917999;28;103709;-80
2021/03/18 10:53:04;;;;;;;7.60;4.67;;;;;;;6.85;63.13;99291.22;4913501;28;104013;-73
2021/03/18 10:55:36;;;;;;;9.20;6.60;;;;;;;6.71;60.30;99278.75;4921764;28;103184;-73
2021/03/18 10:58:05;;;;;;;8.47;6.73;;;;;;;6.62;60.73;99288.84;4904582;28;103715;-79
2021/03/18 11:00:35;;;;;;;5.67;4.93;;;;;;;7.10;60.56;99277.78;4923368;28;103072;-74
2021/03/18 11:03:11;;;;;;;9.00;4.80;;;;;;;7.26;62.03;99281.34;4924389;28;103434;-78
2021/03/18 11:05:45;;;;;;;6.07;4.50;;;;;;;6.92;60.96;99282.13;4920945;28;104908;-75
2021/03/18 11:08:14;;;;;;;4.23;3.53;;;;;;;7.11;57.79;99274.19;4922410;28;105502;-75
2021/03/18 11:10:46;;;;;;;4.40;3.57;;;;;;;7.89;58.34;99271.91;4903881;28;103849;-73
2021/03/18 11:13:19;;;;;;;4.60;4.10;;;;;;;7.39;57.61;99271.91;4924159;28;102756;-72
2021/03/18 11:15:54;;;;;;;4.17;3.77;;;;;;;8.09;56.95;99266.47;4922479;28;104770;-74
2021/03/18 11:18:31;;;;;;;4.43;2.97;;;;;;;9.06;52.95;99261.09;4923124;28;104310;-73
2021/03/18 11:20:59;;;;;;;4.73;3.60;;;;;;;9.72;53.38;99256.28;4920924;28;103163;-74
2021/03/18 11:23:34;;;;;;;5.50;3.53;;;;;;;9.73;50.86;99256.19;4920843;28;102852;-73
2021/03/18 11:26:07;;;;;;;3.83;3.53;;;;;;;10.40;52.87;99254.72;4918920;28;103898;-71
2021/03/18 11:28:35;;;;;;;6.30;4.37;;;;;;;9.20;54.50;99251.47;4922959;28;103604;-75
2021/03/18 11:31:12;;;;;;;3.73;3.43;;;;;;;8.27;55.36;99252.34;4920371;28;102649;-74
2021/03/18 11:33:40;;;;;;;6.10;4.40;;;;;;;7.45;58.02;99251.41;4919323;28;102981;-72
2021/03/18 11:36:08;;;;;;;4.77;3.93;;;;;;;7.42;59.17;99250.72;4913208;28;106365;-72
2021/03/18 11:38:35;;;;;;;5.93;4.00;;;;;;;7.75;57.33;99243.72;4920520;28;103251;-74
2021/03/18 11:41:04;;;;;;;5.70;3.97;;;;;;;7.46;57.59;99245.25;4914205;28;103127;-76
2021/03/18 11:43:32;;;;;;;5.70;4.50;;;;;;;6.89;59.52;99245.50;4921030;28;102841;-73
2021/03/18 11:46:00;;;;;;;6.13;3.20;;;;;;;6.50;57.05;99242.16;4919321;28;103982;-73
2021/03/18 11:48:28;;;;;;;6.33;3.23;;;;;;;6.03;56.02;99244.38;4915670;28;104336;-76
2021/03/18 11:50:55;;;;;;;4.37;3.20;;;;;;;5.84;58.26;99247.78;4921826;28;103159;-73
2021/03/18 11:53:23;;;;;;;4.17;3.40;;;;;;;6.04;58.92;99238.19;4903367;28;103088;-73